Weather History for Madison, MN

Change the Weather History Date:

Wednesday, June 27, 2012

  Actual Average (KAQP) Record (KAQP)
Temperature  
Mean Temperature 79 °F -  
Max Temperature 89 °F 78 °F 91 °F (2001)
Min Temperature 69 °F 56 °F 48 °F (2000)
Cooling Degree Days 14    
Growing Degree Days 29 (Base 50)    
Moisture  
Dew Point 70 °F    
Average Humidity 70    
Maximum Humidity 83    
Minimum Humidity 44    
Precipitation  
Precipitation 0.00 in - - ()
Sea Level Pressure  
Sea Level Pressure 29.65 in    
Wind  
Wind Speed 8 mph (ENE)    
Max Wind Speed 16 mph    
Max Gust Speed 21 mph    
Visibility 10 miles    
Events      
Averages and records for this station are not official NWS values.
T = Trace of Precipitation, MM = Missing Value Source: NWS Daily Summary

Daily Weather History Graph

Daily Weather History Graph

Search for Another Location

Airport:

Trip Planner

Search our weather history database for the weather conditions in past years. The results will help you decide how hot, cold, wet, or windy it might be!

Date:

Astronomy

Jun. 27, 2012 Rise Set
Actual Time 5:40 AM CDT 9:15 PM CDT
Civil Twilight 5:02 AM CDT 9:52 PM CDT
Nautical Twilight 4:13 AM CDT 10:42 PM CDT
Astronomical Twilight 3:07 AM CDT 11:47 PM CDT
Moon 2:30 PM CDT (6/27) 12:53 AM CDT (6/27)
Length of Visible Light 16h 49m
Length of Day
15h 35m
First Quarter, 56% of the Moon is Illuminated
Jun 27
First Quarter
Jul 3
Full
Jul 10
Last Quarter
Jul 18
New
Jul 26
First Quarter

Hourly Weather History & Observations

Time (CDT) Temp. Heat Index Dew Point Humidity Pressure Visibility Wind Dir Wind Speed Gust Speed Precip Events Conditions
12:14 AM 77.0 °F - 68.0 °F 74% 29.62 in 10.0 mi SSE 10.4 mph - N/A   Clear
12:33 AM 77.0 °F - 68.0 °F 74% 29.61 in 10.0 mi SE 10.4 mph - N/A   Clear
12:54 AM 75.2 °F - 68.0 °F 78% 29.61 in 10.0 mi SE 10.4 mph - N/A   Clear
1:14 AM 75.2 °F - 68.0 °F 78% 29.60 in 10.0 mi SE 9.2 mph - N/A   Clear
1:33 AM 73.4 °F - 68.0 °F 83% 29.59 in 10.0 mi SE 9.2 mph - N/A   Clear
1:54 AM 73.4 °F - 68.0 °F 83% 29.58 in 10.0 mi SE 8.1 mph - N/A   Clear
2:14 AM 73.4 °F - 68.0 °F 83% 29.58 in 10.0 mi SE 8.1 mph - N/A   Clear
2:33 AM 73.4 °F - 66.2 °F 78% 29.57 in 10.0 mi SE 9.2 mph - N/A   Clear
2:54 AM 73.4 °F - 66.2 °F 78% 29.58 in 10.0 mi ESE 6.9 mph - N/A   Clear
3:14 AM 71.6 °F - 66.2 °F 83% 29.57 in 10.0 mi SE 9.2 mph - N/A   Clear
3:33 AM 71.6 °F - 66.2 °F 83% 29.56 in 10.0 mi SE 9.2 mph - N/A   Clear
3:54 AM 71.6 °F - 66.2 °F 83% 29.56 in 10.0 mi SE 9.2 mph - N/A   Clear
4:14 AM 71.6 °F - 66.2 °F 83% 29.56 in 10.0 mi ESE 8.1 mph - N/A   Clear
4:33 AM 71.6 °F - 66.2 °F 83% 29.56 in 10.0 mi SE 9.2 mph - N/A   Clear
4:54 AM 71.6 °F - 64.4 °F 78% 29.56 in 10.0 mi SE 9.2 mph - N/A   Clear
5:13 AM 71.6 °F - 64.4 °F 78% 29.56 in 10.0 mi SE 9.2 mph - N/A   Clear
5:54 AM 69.8 °F - 64.4 °F 83% 29.56 in 10.0 mi SE 8.1 mph - N/A   Clear
6:13 AM 71.6 °F - 64.4 °F 78% 29.56 in 10.0 mi SE 8.1 mph - N/A   Clear
6:34 AM 71.6 °F - 66.2 °F 83% 29.56 in 10.0 mi SE 9.2 mph - N/A   Clear
6:54 AM 71.6 °F - 66.2 °F 83% 29.57 in 10.0 mi SE 6.9 mph - N/A   Clear
7:54 AM 75.2 °F - 69.8 °F 83% 29.58 in 10.0 mi SSE 6.9 mph - N/A   Clear
8:13 AM 77.0 °F - 69.8 °F 78% 29.59 in 10.0 mi SE 3.5 mph - N/A   Clear
8:34 AM 78.8 °F - 69.8 °F 74% 29.60 in 10.0 mi ESE 6.9 mph - N/A   Clear
8:54 AM 80.6 °F 83.9 °F 69.8 °F 70% 29.61 in 10.0 mi ESE 5.8 mph - N/A   Clear
9:13 AM 80.6 °F 84.6 °F 71.6 °F 74% 29.61 in 10.0 mi East 6.9 mph - N/A   Clear
9:34 AM 82.4 °F 87.2 °F 71.6 °F 70% 29.62 in 10.0 mi ESE 6.9 mph - N/A   Clear
9:54 AM 82.4 °F 87.2 °F 71.6 °F 70% 29.62 in 10.0 mi SE 5.8 mph - N/A   Clear
10:13 AM 82.4 °F 88.2 °F 73.4 °F 74% 29.60 in 10.0 mi SSE 6.9 mph - N/A   Clear
10:34 AM 84.2 °F 90.9 °F 73.4 °F 70% 29.61 in 10.0 mi SE 4.6 mph - N/A   Clear
10:54 AM 84.2 °F 90.9 °F 73.4 °F 70% 29.61 in 10.0 mi Calm Calm - N/A   Clear
11:13 AM 84.2 °F 90.9 °F 73.4 °F 70% 29.61 in 10.0 mi Calm Calm - N/A   Clear
11:34 AM 86.0 °F 93.4 °F 73.4 °F 66% 29.63 in 10.0 mi Calm Calm - N/A   Clear
11:54 AM 87.8 °F 95.6 °F 73.4 °F 62% 29.62 in 10.0 mi Calm Calm - N/A   Clear
12:13 PM 87.8 °F 95.6 °F 73.4 °F 62% 29.63 in 10.0 mi Calm Calm - N/A   Clear
12:34 PM 87.8 °F 95.6 °F 73.4 °F 62% 29.61 in 10.0 mi North 4.6 mph - N/A   Clear
12:54 PM 86.0 °F 95.1 °F 75.2 °F 70% 29.65 in 10.0 mi NW 6.9 mph - N/A   Clear
1:13 PM 89.6 °F 99.8 °F 75.2 °F 62% 29.65 in 10.0 mi NNW 12.7 mph - N/A   Clear
1:34 PM 87.8 °F 95.6 °F 73.4 °F 62% 29.66 in 10.0 mi NW 9.2 mph - N/A   Clear
1:54 PM 87.8 °F 97.6 °F 75.2 °F 66% 29.66 in 10.0 mi North 11.5 mph 17.3 mph N/A   Clear
2:13 PM 87.8 °F 95.6 °F 73.4 °F 62% 29.65 in 10.0 mi North 9.2 mph - N/A   Clear
2:34 PM 87.8 °F 97.6 °F 75.2 °F 66% 29.66 in 10.0 mi NE 5.8 mph - N/A   Clear
2:54 PM 87.8 °F 97.6 °F 75.2 °F 66% 29.66 in 10.0 mi East 6.9 mph - N/A   Clear
3:13 PM 87.8 °F 97.6 °F 75.2 °F 66% 29.67 in 10.0 mi Calm Calm - N/A   Clear
3:34 PM 89.6 °F 99.8 °F 75.2 °F 62% 29.69 in 10.0 mi NW 3.5 mph - N/A   Clear
3:54 PM 89.6 °F 99.8 °F 75.2 °F 62% 29.68 in 10.0 mi North 4.6 mph - N/A   Clear
4:13 PM 89.6 °F 99.8 °F 75.2 °F 62% 29.69 in 10.0 mi NNW 15.0 mph - N/A   Clear
4:34 PM 87.8 °F 97.6 °F 75.2 °F 66% 29.69 in 10.0 mi NNW 9.2 mph - N/A   Clear
4:54 PM 89.6 °F 99.8 °F 75.2 °F 62% 29.68 in 10.0 mi NNE 10.4 mph - N/A   Clear
5:13 PM 89.6 °F 99.8 °F 75.2 °F 62% 29.68 in 10.0 mi North 11.5 mph - N/A   Clear
5:34 PM 89.6 °F 102.2 °F 77.0 °F 66% 29.67 in 10.0 mi NNE 10.4 mph - N/A   Clear
5:54 PM 89.6 °F 99.8 °F 75.2 °F 62% 29.70 in 10.0 mi North 12.7 mph - N/A   Clear
6:13 PM 87.8 °F 97.6 °F 75.2 °F 66% 29.70 in 10.0 mi NNW 11.5 mph - N/A   Scattered Clouds
6:34 PM 86.0 °F 95.1 °F 75.2 °F 70% 29.72 in 10.0 mi NNW 16.1 mph 20.7 mph N/A   Scattered Clouds
6:54 PM 84.2 °F 92.3 °F 75.2 °F 74% 29.72 in 10.0 mi NNW 13.8 mph - N/A   Clear
7:13 PM 84.2 °F 90.9 °F 73.4 °F 70% 29.73 in 10.0 mi NNW 13.8 mph - N/A   Scattered Clouds
7:34 PM 84.2 °F 90.9 °F 73.4 °F 70% 29.73 in 10.0 mi North 11.5 mph 17.3 mph N/A   Scattered Clouds
7:54 PM 84.2 °F 90.9 °F 73.4 °F 70% 29.74 in 10.0 mi North 5.8 mph - N/A   Clear
8:13 PM 82.4 °F 88.2 °F 73.4 °F 74% 29.75 in 10.0 mi NNW 4.6 mph - N/A   Clear
8:34 PM 82.4 °F 88.2 °F 73.4 °F 74% 29.77 in 10.0 mi WNW 6.9 mph - N/A   Clear
8:54 PM 82.4 °F 88.2 °F 73.4 °F 74% 29.77 in 10.0 mi WNW 5.8 mph - N/A   Scattered Clouds
9:13 PM 82.4 °F 89.5 °F 75.2 °F 79% 29.77 in 10.0 mi WNW 5.8 mph - N/A   Scattered Clouds
9:34 PM 82.4 °F 88.2 °F 73.4 °F 74% 29.78 in 10.0 mi NNW 10.4 mph - N/A   Scattered Clouds
9:54 PM 84.2 °F 84.4 °F 60.8 °F 45% 29.79 in 10.0 mi North 13.8 mph 18.4 mph N/A   Scattered Clouds
10:13 PM 82.4 °F 82.5 °F 59.0 °F 45% 29.77 in 10.0 mi North 10.4 mph - N/A   Scattered Clouds
10:34 PM 80.6 °F 80.8 °F 57.2 °F 45% 29.79 in 10.0 mi North 8.1 mph - N/A   Clear
10:54 PM 78.8 °F - 57.2 °F 47% 29.80 in 10.0 mi North 9.2 mph - N/A   Scattered Clouds
11:54 PM 78.8 °F - 55.4 °F 44% 29.82 in 10.0 mi North 11.5 mph - N/A   Scattered Clouds